Time;durP1;ratioP1;P1;durP2;ratioP2;P2;SDS_P1;SDS_P2;PMS_P1;PMS_P2;Temp;Humidity;BMP_temperature;BMP_pressure;BME280_temperature;BME280_humidity;BME280_pressure;Samples;Min_cycle;Max_cycle;Signal;HPM_P1;HPM_P2
2022/10/20 00:02:17;;;;;;;51.75;26.30;;;;;;;7.90;100.00;101628.03;5096702;28;20024;-46
2022/10/20 00:04:43;;;;;;;47.00;25.67;;;;;;;7.90;100.00;101616.09;5096213;28;20032;-46
2022/10/20 00:07:08;;;;;;;48.35;25.77;;;;;;;7.88;100.00;101607.44;5096018;28;20121;-50
2022/10/20 00:09:33;;;;;;;51.13;26.50;;;;;;;7.84;100.00;101600.38;5096303;28;20035;-48
2022/10/20 00:11:58;;;;;;;58.17;27.13;;;;;;;7.87;100.00;101595.38;5096677;28;20034;-48
2022/10/20 00:14:24;;;;;;;49.28;26.77;;;;;;;7.86;100.00;101591.09;5095661;28;20032;-49
2022/10/20 00:16:49;;;;;;;53.58;26.52;;;;;;;7.87;100.00;101586.81;5096255;28;20024;-49
2022/10/20 00:19:14;;;;;;;52.55;27.17;;;;;;;7.87;100.00;101592.81;5096281;28;20032;-48
2022/10/20 00:21:40;;;;;;;50.75;26.90;;;;;;;7.91;100.00;101586.16;5095510;28;20024;-49
2022/10/20 00:24:05;;;;;;;51.55;28.30;;;;;;;7.89;100.00;101582.66;5096354;28;20360;-45
2022/10/20 00:26:31;;;;;;;47.38;26.17;;;;;;;7.86;100.00;101592.75;5096077;28;20030;-44
2022/10/20 00:28:57;;;;;;;50.42;27.13;;;;;;;7.88;100.00;101580.88;5095470;28;20020;-47
2022/10/20 00:31:24;;;;;;;54.92;28.30;;;;;;;7.89;100.00;101583.53;5096253;28;20024;-45
2022/10/20 00:33:49;;;;;;;55.08;28.20;;;;;;;7.91;100.00;101581.94;5095811;28;20024;-49
2022/10/20 00:36:17;;;;;;;53.78;26.85;;;;;;;7.93;100.00;101584.56;5095494;28;20035;-49
2022/10/20 00:38:43;;;;;;;47.15;27.05;;;;;;;7.89;100.00;101583.53;5095873;28;20031;-48
2022/10/20 00:41:12;;;;;;;51.60;27.48;;;;;;;7.88;100.00;101586.91;5095121;28;20028;-47
2022/10/20 00:43:51;;;;;;;50.65;28.30;;;;;;;7.87;100.00;101563.72;5095444;28;20555;-49
2022/10/20 00:46:20;;;;;;;50.17;26.50;;;;;;;7.76;100.00;101563.16;5095761;28;20109;-49
2022/10/20 00:48:50;;;;;;;47.35;28.13;;;;;;;7.74;100.00;101563.06;5094947;28;20047;-49
2022/10/20 00:51:19;;;;;;;49.30;27.95;;;;;;;7.75;100.00;101554.56;5095950;28;20031;-48
2022/10/20 00:53:45;;;;;;;58.70;26.95;;;;;;;7.61;100.00;101559.78;5095380;28;20361;-48
2022/10/20 00:56:11;;;;;;;47.60;27.75;;;;;;;7.66;100.00;101548.09;5094994;28;20055;-49
2022/10/20 00:58:37;;;;;;;48.28;27.83;;;;;;;7.60;100.00;101545.19;5095429;28;20107;-49
2022/10/20 01:01:03;;;;;;;54.92;26.55;;;;;;;7.56;100.00;101549.28;5095424;28;20032;-48
2022/10/20 01:03:35;;;;;;;52.22;27.08;;;;;;;7.50;100.00;101554.97;5094704;28;20020;-49
2022/10/20 01:06:02;;;;;;;51.53;29.02;;;;;;;7.62;100.00;101548.72;5095615;28;20081;-48
2022/10/20 01:08:27;;;;;;;56.97;29.77;;;;;;;7.58;100.00;101546.00;5095494;28;20130;-49
2022/10/20 01:11:02;;;;;;;56.13;29.00;;;;;;;7.63;100.00;101545.34;5094602;28;20063;-45
2022/10/20 01:13:51;;;;;;;55.00;28.38;;;;;;;7.64;100.00;101542.84;5095280;28;20145;-49
2022/10/20 01:16:25;;;;;;;47.47;27.80;;;;;;;7.61;100.00;101532.44;5094729;28;20490;-45
2022/10/20 01:19:28;;;;;;;55.22;29.33;;;;;;;7.61;100.00;101529.88;5095098;28;20506;-50
2022/10/20 01:22:21;;;;;;;57.20;29.67;;;;;;;7.62;100.00;101520.50;5094796;28;20519;-49
2022/10/20 01:24:55;;;;;;;53.65;28.77;;;;;;;7.56;100.00;101509.09;5094139;28;20120;-50
2022/10/20 01:27:33;;;;;;;57.17;28.77;;;;;;;7.50;100.00;101498.53;5095173;28;20032;-47
2022/10/20 01:30:04;;;;;;;55.95;30.85;;;;;;;7.52;100.00;101493.50;5095112;28;20113;-49
2022/10/20 01:33:08;;;;;;;53.15;29.00;;;;;;;7.52;100.00;101483.22;5094389;28;20032;-49
2022/10/20 01:36:18;;;;;;;54.28;30.80;;;;;;;7.51;100.00;101482.31;5056364;28;20044;-49
2022/10/20 01:38:54;;;;;;;59.85;30.45;;;;;;;7.51;100.00;101479.75;5046641;28;20079;-49
2022/10/20 01:41:26;;;;;;;59.00;30.80;;;;;;;7.48;100.00;101483.88;5094893;28;20020;-49
2022/10/20 01:43:52;;;;;;;59.33;29.48;;;;;;;7.52;100.00;101472.97;5094560;28;20028;-49
2022/10/20 01:46:23;;;;;;;63.20;30.92;;;;;;;7.51;100.00;101472.06;5093929;28;20020;-47
2022/10/20 01:48:48;;;;;;;54.00;29.35;;;;;;;7.45;100.00;101466.66;5094420;28;20031;-49
2022/10/20 01:51:14;;;;;;;54.63;28.98;;;;;;;7.47;100.00;101465.03;5094799;28;20013;-49
2022/10/20 01:53:39;;;;;;;54.28;30.65;;;;;;;7.40;100.00;101468.09;5093717;28;20032;-49
2022/10/20 01:56:05;;;;;;;58.00;30.98;;;;;;;7.40;100.00;101478.34;5094602;28;20028;-48
2022/10/20 01:58:53;;;;;;;63.45;32.00;;;;;;;7.41;100.00;101492.91;5093485;28;20062;-49
2022/10/20 02:01:25;;;;;;;54.67;30.73;;;;;;;7.44;100.00;101484.50;5094185;28;20051;-48
2022/10/20 02:03:58;;;;;;;64.22;32.50;;;;;;;7.44;100.00;101485.38;5093693;28;20024;-49
2022/10/20 02:06:37;;;;;;;62.15;34.13;;;;;;;7.44;100.00;101479.34;5093436;28;20516;-48
2022/10/20 02:09:07;;;;;;;54.30;31.85;;;;;;;7.37;100.00;101476.50;5094222;28;20467;-48
2022/10/20 02:12:05;;;;;;;59.75;31.40;;;;;;;7.44;100.00;101464.88;5094089;28;20137;-48
2022/10/20 02:14:32;;;;;;;62.78;32.60;;;;;;;7.43;100.00;101460.53;5093074;28;20035;-46
2022/10/20 02:17:03;;;;;;;64.88;33.80;;;;;;;7.42;100.00;101456.22;5094214;28;20046;-46
2022/10/20 02:19:33;;;;;;;67.40;34.33;;;;;;;7.43;100.00;101457.09;5094166;28;20109;-47
2022/10/20 02:21:59;;;;;;;66.70;33.28;;;;;;;7.42;100.00;101461.34;5093571;28;20398;-49
2022/10/20 02:24:30;;;;;;;59.33;32.08;;;;;;;7.38;100.00;101451.72;5093779;28;20515;-48
2022/10/20 02:27:00;;;;;;;60.67;33.22;;;;;;;7.35;100.00;101446.44;5093309;28;20066;-49
2022/10/20 02:29:31;;;;;;;55.25;32.17;;;;;;;7.35;100.00;101443.88;5094303;28;20024;-49
2022/10/20 02:31:57;;;;;;;62.15;32.85;;;;;;;7.33;100.00;101432.66;5093769;28;20513;-47
2022/10/20 02:34:26;;;;;;;56.30;31.83;;;;;;;7.32;100.00;101434.34;5092996;28;20024;-48
2022/10/20 02:36:55;;;;;;;64.88;33.80;;;;;;;7.30;100.00;101429.94;5093486;28;20028;-49
2022/10/20 02:39:20;;;;;;;60.40;32.72;;;;;;;7.19;100.00;101422.56;5093884;28;20035;-47
2022/10/20 02:41:46;;;;;;;65.10;35.30;;;;;;;7.27;100.00;101411.81;5092651;28;20101;-49
2022/10/20 02:44:11;;;;;;;63.05;32.97;;;;;;;7.23;100.00;101411.66;5093703;28;20030;-48
2022/10/20 02:46:36;;;;;;;65.97;34.15;;;;;;;7.19;100.00;101406.28;5093410;28;20371;-49
2022/10/20 02:49:01;;;;;;;65.32;35.03;;;;;;;7.23;100.00;101398.84;5092677;28;20035;-49
2022/10/20 02:51:27;;;;;;;72.43;35.35;;;;;;;7.18;100.00;101384.91;5093389;28;20031;-48
2022/10/20 02:53:53;;;;;;;65.07;36.22;;;;;;;7.20;100.00;101387.53;5093185;28;20036;-48
2022/10/20 02:56:19;;;;;;;69.28;35.80;;;;;;;7.19;100.00;101383.22;5092751;28;20383;-49
2022/10/20 02:58:44;;;;;;;72.13;36.63;;;;;;;7.28;100.00;101367.44;5093267;28;20023;-49
2022/10/20 03:01:09;;;;;;;74.47;37.50;;;;;;;7.27;100.00;101366.56;5093345;28;20028;-50
2022/10/20 03:03:34;;;;;;;63.88;36.20;;;;;;;7.23;100.00;101356.94;5092217;28;20080;-49
2022/10/20 03:06:12;;;;;;;73.32;38.42;;;;;;;7.30;100.00;101356.44;5093211;28;20471;-49
2022/10/20 03:08:37;;;;;;;82.80;40.53;;;;;;;7.30;100.00;101348.75;5093039;28;20459;-49
2022/10/20 03:11:02;;;;;;;77.85;37.47;;;;;;;7.32;100.00;101343.69;5092546;28;20024;-50
2022/10/20 03:13:28;;;;;;;71.82;37.28;;;;;;;7.34;100.00;101344.69;5093138;28;20115;-49
2022/10/20 03:15:53;;;;;;;77.18;39.63;;;;;;;7.32;100.00;101347.16;5091239;28;20023;-49
2022/10/20 03:18:18;;;;;;;72.35;39.55;;;;;;;7.33;100.00;101348.03;5093059;28;20032;-48
2022/10/20 03:20:44;;;;;;;73.82;39.22;;;;;;;7.33;100.00;101342.91;5092795;28;20020;-49
2022/10/20 03:23:09;;;;;;;71.53;38.83;;;;;;;7.31;100.00;101329.13;5092371;28;20531;-48
2022/10/20 03:25:34;;;;;;;80.05;39.80;;;;;;;7.36;100.00;101325.09;5092867;28;20028;-49
2022/10/20 03:27:59;;;;;;;73.13;38.58;;;;;;;7.34;100.00;101322.47;5093086;28;20380;-49
2022/10/20 03:30:25;;;;;;;83.47;43.15;;;;;;;7.41;100.00;101311.72;5092311;28;20388;-48
2022/10/20 03:32:50;;;;;;;78.68;40.80;;;;;;;7.38;100.00;101323.50;5092762;28;20028;-48
2022/10/20 03:35:16;;;;;;;83.18;41.72;;;;;;;7.47;100.00;101313.69;5092925;28;20017;-49
2022/10/20 03:37:41;;;;;;;80.05;42.47;;;;;;;7.45;100.00;101312.75;5092069;28;20099;-48
2022/10/20 03:40:07;;;;;;;90.95;43.08;;;;;;;7.50;100.00;101310.41;5093087;28;20448;-45
2022/10/20 03:42:32;;;;;;;83.57;44.05;;;;;;;7.52;100.00;101308.81;5092435;28;20040;-50
2022/10/20 03:44:57;;;;;;;82.05;40.80;;;;;;;7.60;100.00;101309.19;5092023;28;20031;-49
2022/10/20 03:47:22;;;;;;;87.18;44.67;;;;;;;7.60;100.00;101311.75;5092861;28;20032;-50
2022/10/20 03:49:48;;;;;;;89.43;43.58;;;;;;;7.66;100.00;101301.81;5092616;28;20036;-49
2022/10/20 03:52:13;;;;;;;85.57;43.78;;;;;;;7.66;100.00;101306.94;5092132;28;20460;-50
2022/10/20 03:54:39;;;;;;;84.35;42.38;;;;;;;7.69;100.00;101301.94;5092503;28;20028;-47
2022/10/20 03:57:05;;;;;;;85.53;41.28;;;;;;;7.68;100.00;101295.03;5092777;28;20028;-49
2022/10/20 03:59:30;;;;;;;75.13;41.70;;;;;;;7.67;100.00;101289.03;5091682;28;20028;-47
2022/10/20 04:01:56;;;;;;;84.93;44.20;;;;;;;7.77;100.00;101279.22;5092727;28;20074;-48
2022/10/20 04:04:21;;;;;;;83.70;43.85;;;;;;;7.75;100.00;101282.59;5092585;28;20035;-47
2022/10/20 04:06:46;;;;;;;78.25;43.20;;;;;;;7.74;100.00;101287.66;5091752;28;20024;-48
2022/10/20 04:09:12;;;;;;;88.35;44.72;;;;;;;7.81;100.00;101288.81;5092786;28;20052;-48
2022/10/20 04:11:37;;;;;;;88.97;44.33;;;;;;;7.83;100.00;101284.66;5092428;28;20360;-49
2022/10/20 04:14:02;;;;;;;89.43;45.03;;;;;;;7.88;100.00;101278.06;5091832;28;20028;-48
2022/10/20 04:16:27;;;;;;;91.80;45.65;;;;;;;7.93;100.00;101283.38;5092816;28;20107;-49
2022/10/20 04:18:54;;;;;;;97.03;44.97;;;;;;;7.93;100.00;101285.94;5092383;28;20016;-49
2022/10/20 04:21:19;;;;;;;85.45;44.15;;;;;;;7.93;100.00;101268.88;5091968;28;20021;-48
2022/10/20 04:23:44;;;;;;;91.95;44.78;;;;;;;7.96;100.00;101270.72;5092441;28;20027;-48
2022/10/20 04:26:12;;;;;;;86.88;44.67;;;;;;;7.99;100.00;101264.03;5092743;28;20475;-46
2022/10/20 04:28:38;;;;;;;86.60;44.25;;;;;;;7.96;100.00;101245.03;5096016;28;20028;-47
2022/10/20 04:31:05;;;;;;;84.55;43.88;;;;;;;8.00;100.00;101249.50;5096253;28;20031;-46
2022/10/20 04:33:30;;;;;;;84.88;42.70;;;;;;;8.03;100.00;101234.25;5095145;28;20324;-45
2022/10/20 04:35:57;;;;;;;86.43;45.65;;;;;;;8.05;100.00;101248.03;5095963;28;20387;-48
2022/10/20 04:38:22;;;;;;;90.50;47.65;;;;;;;8.12;100.00;101246.63;5096280;28;20024;-48
2022/10/20 04:40:55;;;;;;;91.85;45.42;;;;;;;8.18;100.00;101242.66;5095133;28;20016;-47
2022/10/20 04:43:20;;;;;;;92.88;46.40;;;;;;;8.23;100.00;101236.03;5095854;28;20040;-50
2022/10/20 04:45:45;;;;;;;85.40;45.28;;;;;;;8.26;100.00;101234.41;5095545;28;20142;-49
2022/10/20 04:48:11;;;;;;;83.57;44.17;;;;;;;8.22;100.00;101235.97;5095255;28;20028;-49
2022/10/20 04:50:36;;;;;;;91.13;47.03;;;;;;;8.32;100.00;101227.88;5095784;28;20025;-48
2022/10/20 04:53:01;;;;;;;90.03;44.95;;;;;;;8.39;100.00;101229.00;5095917;28;20020;-49
2022/10/20 04:55:26;;;;;;;90.95;47.10;;;;;;;8.43;100.00;101217.19;5094989;28;20031;-49
2022/10/20 04:57:52;;;;;;;92.25;47.10;;;;;;;8.45;100.00;101210.44;5095449;28;20460;-46
2022/10/20 05:00:17;;;;;;;83.50;46.30;;;;;;;8.50;100.00;101204.72;5095617;28;20024;-46
2022/10/20 05:02:42;;;;;;;94.32;48.38;;;;;;;8.62;100.00;101209.50;5094411;28;20028;-48
2022/10/20 05:05:08;;;;;;;92.25;47.05;;;;;;;8.69;100.00;101205.53;5095635;28;20089;-49
2022/10/20 05:07:33;;;;;;;91.25;47.17;;;;;;;8.79;100.00;101194.84;5095270;28;20399;-47
2022/10/20 05:09:58;;;;;;;90.18;46.88;;;;;;;8.90;100.00;101201.28;5094524;28;20020;-49
2022/10/20 05:12:24;;;;;;;78.57;43.00;;;;;;;9.00;100.00;101199.09;5095499;28;20024;-48
2022/10/20 05:14:49;;;;;;;81.65;45.85;;;;;;;9.07;100.00;101196.84;5095096;28;20538;-47
2022/10/20 05:17:14;;;;;;;84.80;43.53;;;;;;;9.10;100.00;101219.22;5094392;28;20077;-47
2022/10/20 05:19:40;;;;;;;83.03;41.85;;;;;;;9.15;100.00;101224.56;5095166;28;20099;-46
2022/10/20 05:22:05;;;;;;;84.18;42.33;;;;;;;9.15;100.00;101227.16;5095350;28;20113;-49
2022/10/20 05:24:30;;;;;;;68.20;40.58;;;;;;;9.16;100.00;101192.91;5094102;28;20065;-44
2022/10/20 05:26:55;;;;;;;75.57;41.03;;;;;;;9.17;100.00;101180.09;5095132;28;20075;-48
2022/10/20 05:29:21;;;;;;;67.65;40.67;;;;;;;9.14;100.00;101164.56;5095077;28;20383;-49
2022/10/20 05:31:46;;;;;;;75.28;40.97;;;;;;;9.13;100.00;101178.22;5093921;28;20028;-46
2022/10/20 05:34:11;;;;;;;73.65;40.08;;;;;;;9.13;100.00;101188.53;5095118;28;20383;-49
2022/10/20 05:36:37;;;;;;;69.88;38.42;;;;;;;9.14;100.00;101200.56;5094018;28;20074;-47
2022/10/20 05:39:03;;;;;;;71.13;40.80;;;;;;;9.17;100.00;101190.41;5093892;28;20024;-48
2022/10/20 05:41:31;;;;;;;72.20;41.22;;;;;;;9.17;100.00;101195.53;5094632;28;20118;-49
2022/10/20 05:44:02;;;;;;;76.47;39.85;;;;;;;9.15;100.00;101192.00;5094144;28;20116;-48
2022/10/20 05:46:29;;;;;;;75.22;40.03;;;;;;;9.13;100.00;101203.94;5094552;28;20024;-50
2022/10/20 05:48:57;;;;;;;73.07;40.60;;;;;;;9.18;100.00;101175.81;5094596;28;20069;-49
2022/10/20 05:51:25;;;;;;;73.85;40.05;;;;;;;9.19;100.00;101170.78;5093791;28;20534;-47
2022/10/20 05:53:53;;;;;;;72.80;40.55;;;;;;;9.18;100.00;101180.97;5094165;28;20441;-49
2022/10/20 05:56:20;;;;;;;72.60;40.15;;;;;;;9.21;100.00;101175.97;5094570;28;20031;-49
2022/10/20 05:58:48;;;;;;;76.53;40.97;;;;;;;9.19;100.00;101177.59;5093457;28;20052;-49
2022/10/20 06:01:16;;;;;;;66.63;40.05;;;;;;;9.18;100.00;101196.41;5094589;28;20027;-48
2022/10/20 06:03:46;;;;;;;65.07;38.67;;;;;;;9.17;100.00;101187.81;5094247;28;20024;-48
2022/10/20 06:06:12;;;;;;;67.15;38.72;;;;;;;9.17;100.00;101195.53;5093599;28;20039;-48
2022/10/20 06:08:37;;;;;;;68.85;38.92;;;;;;;9.18;100.00;101191.25;5094004;28;20024;-49
2022/10/20 06:11:08;;;;;;;72.55;39.00;;;;;;;9.12;100.00;101194.47;5094138;28;20024;-49
2022/10/20 06:13:34;;;;;;;68.25;38.85;;;;;;;9.12;100.00;101191.91;5093004;28;20490;-49
2022/10/20 06:16:08;;;;;;;66.13;38.03;;;;;;;9.16;100.00;101192.91;5094266;28;20024;-50
2022/10/20 06:18:34;;;;;;;64.00;37.88;;;;;;;9.14;100.00;101189.38;5093786;28;20028;-49
2022/10/20 06:21:04;;;;;;;69.80;38.42;;;;;;;9.17;100.00;101185.25;5093289;28;20024;-49
2022/10/20 06:23:30;;;;;;;67.10;39.10;;;;;;;9.18;100.00;101178.41;5093958;28;20051;-45
2022/10/20 06:26:01;;;;;;;65.47;38.08;;;;;;;9.12;100.00;101184.19;5092996;28;20059;-49
2022/10/20 06:28:30;;;;;;;68.28;38.15;;;;;;;9.20;100.00;101185.38;5094113;28;20035;-49
2022/10/20 06:30:55;;;;;;;72.88;39.03;;;;;;;9.21;100.00;101194.84;5094020;28;20054;-48
2022/10/20 06:33:20;;;;;;;73.60;39.22;;;;;;;9.24;100.00;101204.38;5093152;28;20055;-49
2022/10/20 06:35:45;;;;;;;67.78;39.25;;;;;;;9.27;100.00;101204.50;5093553;28;20028;-48
2022/10/20 06:38:11;;;;;;;71.97;38.40;;;;;;;9.31;100.00;101182.34;5093638;28;20028;-49
2022/10/20 06:40:36;;;;;;;66.78;38.00;;;;;;;9.30;100.00;101183.19;5092418;28;20045;-48
2022/10/20 06:43:01;;;;;;;67.32;38.28;;;;;;;9.35;100.00;101191.97;5093400;28;20040;-49
2022/10/20 06:45:26;;;;;;;64.90;38.30;;;;;;;9.37;100.00;101182.59;5093613;28;20073;-49
2022/10/20 06:47:52;;;;;;;69.65;36.90;;;;;;;9.38;100.00;101182.66;5092537;28;20065;-48
2022/10/20 06:50:17;;;;;;;67.97;38.03;;;;;;;9.41;100.00;101170.75;5093230;28;20456;-47
2022/10/20 06:52:42;;;;;;;64.93;36.50;;;;;;;9.45;100.00;101173.50;5093268;28;20024;-49
2022/10/20 06:55:08;;;;;;;64.18;37.67;;;;;;;9.48;100.00;101181.34;5092532;28;20081;-47
2022/10/20 06:57:33;;;;;;;58.85;36.40;;;;;;;9.52;100.00;101175.47;5093229;28;20035;-50
2022/10/20 06:59:58;;;;;;;63.60;36.70;;;;;;;9.53;100.00;101164.38;5093458;28;20024;-48
2022/10/20 07:02:24;;;;;;;64.82;38.33;;;;;;;9.56;100.00;101163.63;5092595;28;20418;-49
2022/10/20 07:04:49;;;;;;;63.22;37.63;;;;;;;9.58;100.00;101156.84;5092870;28;20088;-49
2022/10/20 07:07:14;;;;;;;64.85;36.55;;;;;;;9.61;100.00;101159.53;5093071;28;20024;-47
2022/10/20 07:09:40;;;;;;;66.13;36.80;;;;;;;9.64;100.00;101151.91;5091903;28;20036;-48
2022/10/20 07:12:05;;;;;;;72.57;45.03;;;;;;;9.66;100.00;101149.44;5093233;28;20031;-47
2022/10/20 07:14:30;;;;;;;60.95;35.97;;;;;;;9.71;100.00;101151.34;5092991;28;20036;-44
2022/10/20 07:16:56;;;;;;;64.15;37.60;;;;;;;9.72;100.00;101160.81;5092460;28;20035;-48
2022/10/20 07:19:21;;;;;;;63.17;37.35;;;;;;;9.77;100.00;101166.13;5093178;28;20020;-49
2022/10/20 07:21:46;;;;;;;63.58;36.35;;;;;;;9.82;100.00;101168.88;5092787;28;20114;-49
2022/10/20 07:24:12;;;;;;;64.50;36.10;;;;;;;9.84;100.00;101165.56;5092108;28;20035;-50
2022/10/20 07:26:39;;;;;;;54.00;36.00;;;;;;;9.88;100.00;101169.13;5092605;28;20357;-49
2022/10/20 07:29:05;;;;;;;65.37;36.73;;;;;;;9.91;100.00;101176.09;5092289;28;20031;-49
2022/10/20 07:31:52;;;;;;;60.90;35.17;;;;;;;9.95;100.00;101180.53;5092577;28;20278;-45
2022/10/20 07:34:19;;;;;;;63.65;36.75;;;;;;;10.02;100.00;101174.81;5092424;28;20116;-49
2022/10/20 07:36:44;;;;;;;60.87;36.20;;;;;;;10.05;100.00;101165.47;5091961;28;20039;-49
2022/10/20 07:39:12;;;;;;;58.33;35.20;;;;;;;10.09;100.00;101166.47;5092837;28;20286;-50
2022/10/20 07:41:38;;;;;;;62.55;34.03;;;;;;;10.14;100.00;101175.22;5092606;28;20107;-49
2022/10/20 07:44:05;;;;;;;60.45;34.72;;;;;;;10.18;100.00;101182.25;5092196;28;20035;-48
2022/10/20 07:46:30;;;;;;;66.85;35.58;;;;;;;10.25;100.00;101177.31;5092823;28;20081;-46
2022/10/20 07:48:55;;;;;;;55.65;34.78;;;;;;;10.28;100.00;101172.31;5092746;28;20036;-49
2022/10/20 07:51:20;;;;;;;62.88;35.35;;;;;;;10.32;100.00;101175.03;5091910;28;20112;-50
2022/10/20 07:53:47;;;;;;;58.07;33.77;;;;;;;10.36;100.00;101176.06;5092715;28;20027;-48
2022/10/20 07:56:12;;;;;;;64.65;35.13;;;;;;;10.43;100.00;101170.31;5092635;28;20668;-49
2022/10/20 07:58:38;;;;;;;60.80;34.95;;;;;;;10.49;100.00;101169.63;5091737;28;20451;-48
2022/10/20 08:01:04;;;;;;;56.08;33.22;;;;;;;10.56;100.00;101178.44;5093070;28;20027;-48
2022/10/20 08:03:29;;;;;;;52.53;33.00;;;;;;;10.62;100.00;101176.09;5096764;28;20050;-49
2022/10/20 08:05:54;;;;;;;55.58;33.22;;;;;;;10.68;100.00;101174.59;5095407;28;20036;-49
2022/10/20 08:08:20;;;;;;;54.58;33.28;;;;;;;10.75;100.00;101169.66;5096775;28;20042;-49
2022/10/20 08:10:45;;;;;;;50.75;31.30;;;;;;;10.80;100.00;101160.38;5096494;28;20074;-49
2022/10/20 08:13:10;;;;;;;58.92;31.67;;;;;;;10.92;100.00;101160.75;5095801;28;20099;-49
2022/10/20 08:15:36;;;;;;;52.95;31.02;;;;;;;10.97;100.00;101153.19;5096243;28;20066;-50
2022/10/20 08:18:01;;;;;;;51.40;32.22;;;;;;;11.03;100.00;101161.13;5096343;28;20391;-49
2022/10/20 08:20:26;;;;;;;50.28;30.77;;;;;;;11.09;100.00;101165.59;5095952;28;20058;-49
2022/10/20 08:22:52;;;;;;;55.92;31.65;;;;;;;11.16;100.00;101163.28;5096305;28;20077;-49
2022/10/20 08:25:17;;;;;;;51.58;31.90;;;;;;;11.30;100.00;101155.13;5095994;28;20031;-46
2022/10/20 08:27:42;;;;;;;54.22;32.00;;;;;;;11.37;100.00;101159.63;5096018;28;20140;-46
2022/10/20 08:30:08;;;;;;;49.15;30.63;;;;;;;11.41;100.00;101164.03;5096140;28;20028;-49
2022/10/20 08:32:34;;;;;;;59.97;30.13;;;;;;;11.50;100.00;101146.28;5095020;28;20043;-49
2022/10/20 08:34:59;;;;;;;54.15;31.55;;;;;;;11.51;100.00;101144.56;5095985;28;20020;-49
2022/10/20 08:37:24;;;;;;;59.72;31.08;;;;;;;11.57;100.00;101155.09;5095934;28;20026;-49
2022/10/20 08:39:50;;;;;;;56.08;30.38;;;;;;;11.63;100.00;101144.06;5095156;28;20027;-48
2022/10/20 08:42:16;;;;;;;50.22;30.67;;;;;;;11.72;100.00;101144.34;5095763;28;20070;-46
2022/10/20 08:44:44;;;;;;;52.03;29.25;;;;;;;11.75;100.00;101159.03;5095601;28;20463;-49
2022/10/20 08:47:26;;;;;;;48.58;28.88;;;;;;;11.86;100.00;101153.38;5095028;28;20482;-50
2022/10/20 08:49:52;;;;;;;52.63;29.73;;;;;;;11.99;100.00;101153.75;5095703;28;20024;-48
2022/10/20 08:52:23;;;;;;;48.40;28.83;;;;;;;12.22;100.00;101145.78;5095932;28;20368;-49
2022/10/20 08:54:52;;;;;;;47.60;27.17;;;;;;;12.49;100.00;101143.06;5094736;28;20484;-49
2022/10/20 08:57:23;;;;;;;49.40;28.65;;;;;;;12.61;100.00;101145.09;5095771;28;20024;-49
2022/10/20 08:59:52;;;;;;;49.55;27.85;;;;;;;12.69;100.00;101135.81;5095435;28;20042;-49
2022/10/20 09:02:17;;;;;;;42.38;25.85;;;;;;;12.76;99.46;101124.81;5094629;28;20378;-50
2022/10/20 09:04:54;;;;;;;44.65;25.33;;;;;;;12.82;98.73;101127.53;5095374;28;20020;-50
2022/10/20 09:07:32;;;;;;;39.83;26.20;;;;;;;12.90;99.32;101121.66;5095615;28;20028;-48
2022/10/20 09:10:25;;;;;;;41.00;25.23;;;;;;;12.93;99.81;101124.34;5095356;28;20388;-49
2022/10/20 09:12:51;;;;;;;44.40;26.17;;;;;;;12.90;98.94;101126.84;5095304;28;20031;-49
2022/10/20 09:15:19;;;;;;;37.03;24.90;;;;;;;12.91;98.97;101128.59;5094680;28;20020;-50
2022/10/20 09:17:49;;;;;;;43.22;25.45;;;;;;;12.92;99.04;101125.19;5095227;28;20119;-50
2022/10/20 09:20:20;;;;;;;42.88;25.92;;;;;;;12.90;99.24;101124.25;5095212;28;20387;-49
2022/10/20 09:22:46;;;;;;;40.88;24.92;;;;;;;12.92;99.62;101127.78;5094222;28;20031;-48
2022/10/20 09:25:16;;;;;;;42.58;26.38;;;;;;;12.91;99.63;101128.59;5095002;28;20531;-49
2022/10/20 09:27:43;;;;;;;42.08;24.52;;;;;;;12.90;99.95;101117.38;5094857;28;20439;-49
2022/10/20 09:30:14;;;;;;;47.20;25.90;;;;;;;12.92;100.00;101125.19;5094244;28;20387;-50
2022/10/20 09:32:39;;;;;;;48.28;25.70;;;;;;;12.88;100.00;101116.47;5094800;28;20028;-46
2022/10/20 09:35:15;;;;;;;44.33;25.50;;;;;;;12.94;100.00;101119.22;5094992;28;20032;-49
2022/10/20 09:37:42;;;;;;;43.92;26.88;;;;;;;12.95;100.00;101122.66;5093643;28;20107;-47
2022/10/20 09:40:14;;;;;;;50.92;27.30;;;;;;;12.96;100.00;101129.59;5094988;28;20052;-49
2022/10/20 09:42:51;;;;;;;46.28;25.55;;;;;;;12.92;100.00;101128.63;5093974;28;20399;-46
2022/10/20 09:45:21;;;;;;;48.20;26.42;;;;;;;12.95;100.00;101133.00;5094855;28;20028;-50
2022/10/20 09:47:50;;;;;;;43.85;25.75;;;;;;;12.95;100.00;101135.59;5094483;28;20024;-49
2022/10/20 09:50:25;;;;;;;44.67;26.70;;;;;;;12.95;100.00;101133.00;5093900;28;20028;-49
2022/10/20 09:52:51;;;;;;;41.97;27.02;;;;;;;12.95;100.00;101140.75;5094506;28;20042;-49
2022/10/20 09:55:29;;;;;;;51.03;28.52;;;;;;;12.95;100.00;101130.41;5094467;28;20084;-49
2022/10/20 09:57:59;;;;;;;54.25;29.40;;;;;;;12.95;100.00;101122.66;5093534;28;20065;-48
2022/10/20 10:00:29;;;;;;;47.47;28.60;;;;;;;12.89;100.00;101113.03;5094384;28;20023;-49
2022/10/20 10:03:08;;;;;;;45.95;27.33;;;;;;;12.91;100.00;101113.06;5094158;28;20035;-49
2022/10/20 10:05:34;;;;;;;44.92;28.50;;;;;;;12.87;100.00;101111.25;5093493;28;20107;-49
2022/10/20 10:08:00;;;;;;;48.10;29.02;;;;;;;12.83;100.00;101115.47;5094490;28;20115;-46
2022/10/20 10:10:28;;;;;;;47.17;28.80;;;;;;;12.80;100.00;101113.69;5094149;28;20016;-50
2022/10/20 10:12:59;;;;;;;45.83;28.38;;;;;;;12.77;100.00;101116.22;5093126;28;20024;-45
2022/10/20 10:15:28;;;;;;;51.90;29.60;;;;;;;12.71;100.00;101118.63;5094111;28;20455;-48
2022/10/20 10:17:54;;;;;;;55.53;31.52;;;;;;;12.67;100.00;101116.81;5093023;28;20384;-44
2022/10/20 10:20:19;;;;;;;56.38;32.92;;;;;;;12.64;100.00;101119.31;5094164;28;20016;-47
2022/10/20 10:22:45;;;;;;;60.70;31.83;;;;;;;12.62;100.00;101114.09;5093841;28;20020;-47
2022/10/20 10:25:18;;;;;;;53.22;32.67;;;;;;;12.58;100.00;101125.22;5092577;28;20039;-50
2022/10/20 10:28:05;;;;;;;54.80;31.70;;;;;;;12.57;100.00;101113.09;5093525;28;20099;-49
2022/10/20 10:30:37;;;;;;;63.40;33.47;;;;;;;12.55;100.00;101103.56;5093881;28;20145;-48
2022/10/20 10:33:25;;;;;;;66.65;34.25;;;;;;;12.54;100.00;101101.81;5093176;28;20024;-49
2022/10/20 10:35:51;;;;;;;62.95;33.83;;;;;;;12.51;100.00;101092.25;5093474;28;20031;-49
2022/10/20 10:38:16;;;;;;;60.65;33.40;;;;;;;12.49;100.00;101086.19;5093704;28;20024;-49
2022/10/20 10:40:53;;;;;;;60.35;34.88;;;;;;;12.48;100.00;101093.06;5092844;28;20209;-50
2022/10/20 10:43:30;;;;;;;67.13;35.30;;;;;;;12.47;100.00;101078.41;5093542;28;20044;-50
2022/10/20 10:46:03;;;;;;;67.87;36.80;;;;;;;12.46;100.00;101078.34;5093594;28;20043;-47
2022/10/20 10:48:47;;;;;;;56.83;33.72;;;;;;;12.46;100.00;101068.91;5093428;28;20483;-48
2022/10/20 10:51:43;;;;;;;64.93;35.88;;;;;;;12.46;100.00;101094.75;5093610;28;20076;-49
2022/10/20 10:54:23;;;;;;;60.58;36.17;;;;;;;12.45;100.00;101097.31;5092663;28;20120;-48
2022/10/20 10:56:53;;;;;;;65.25;35.95;;;;;;;12.43;100.00;101093.78;5093130;28;20036;-48
2022/10/20 10:59:26;;;;;;;63.45;37.15;;;;;;;12.40;100.00;101092.00;5093503;28;20024;-47
2022/10/20 11:02:10;;;;;;;65.85;38.90;;;;;;;12.40;100.00;101084.25;5092383;28;20024;-50
2022/10/20 11:04:57;;;;;;;67.65;37.15;;;;;;;12.41;100.00;101090.28;5092985;28;20020;-49
2022/10/20 11:07:46;;;;;;;142.00;74.60;;;;;;;12.38;100.00;101077.28;5092647;28;20138;-49
2022/10/20 11:10:41;;;;;;;77.18;40.78;;;;;;;12.36;100.00;101072.09;5093327;28;20030;-49
2022/10/20 11:13:32;;;;;;;68.55;39.80;;;;;;;12.37;100.00;101079.00;5093212;28;20016;-50
2022/10/20 11:16:29;;;;;;;73.97;39.40;;;;;;;12.39;100.00;101059.22;5092483;28;20031;-46